createdAt,value
2019-04-07T00:00:54.552Z,43.60
2019-04-07T00:03:21.590Z,51.43
2019-04-07T00:05:48.522Z,42.47
2019-04-07T00:08:15.445Z,51.30
2019-04-07T00:10:42.502Z,47.77
2019-04-07T00:13:10.047Z,48.40
2019-04-07T00:15:37.767Z,44.93
2019-04-07T00:18:05.010Z,57.43
2019-04-07T00:20:32.154Z,47.50
2019-04-07T00:22:59.092Z,50.90
2019-04-07T00:25:25.984Z,48.93
2019-04-07T00:27:52.922Z,50.33
2019-04-07T00:30:19.854Z,47.87
2019-04-07T00:32:46.830Z,47.60
2019-04-07T00:35:23.232Z,52.17
2019-04-07T00:37:42.779Z,49.93
2019-04-07T00:40:09.834Z,49.10
2019-04-07T00:42:36.789Z,45.93
2019-04-07T00:45:04.174Z,48.87
2019-04-07T00:47:31.198Z,48.50
2019-04-07T00:49:58.731Z,52.17
2019-04-07T00:52:25.683Z,44.60
2019-04-07T00:54:52.592Z,48.77
2019-04-07T00:57:19.868Z,50.20
2019-04-07T00:59:47.314Z,48.97
2019-04-07T01:02:14.436Z,48.93
2019-04-07T01:04:41.887Z,49.60
2019-04-07T01:07:09.158Z,51.87
2019-04-07T01:09:36.049Z,48.53
2019-04-07T01:12:03.073Z,45.43
2019-04-07T01:14:29.979Z,50.60
2019-04-07T01:16:57.153Z,51.00
2019-04-07T01:19:24.378Z,50.57
2019-04-07T01:21:51.497Z,48.60
2019-04-07T01:24:18.717Z,49.10
2019-04-07T01:26:45.737Z,48.73
2019-04-07T01:29:12.642Z,47.10
2019-04-07T01:31:39.604Z,50.37
2019-04-07T01:34:06.581Z,46.13
2019-04-07T01:36:33.804Z,48.17
2019-04-07T01:39:00.852Z,44.63
2019-04-07T01:41:39.498Z,48.07
2019-04-07T01:44:12.150Z,47.30
2019-04-07T01:46:58.827Z,46.23
2019-04-07T01:49:33.842Z,44.70
2019-04-07T01:52:18.352Z,44.70
2019-04-07T01:55:01.595Z,51.30
2019-04-07T01:57:42.898Z,50.10
2019-04-07T02:00:20.497Z,47.03
2019-04-07T02:03:03.362Z,43.83
2019-04-07T02:05:58.430Z,42.70
2019-04-07T02:08:30.862Z,45.63
2019-04-07T02:11:14.582Z,40.47
2019-04-07T02:13:59.299Z,44.70
2019-04-07T02:16:45.196Z,44.13
2019-04-07T02:19:38.013Z,45.57
2019-04-07T02:22:16.262Z,43.00
2019-04-07T02:25:14.752Z,44.37
2019-04-07T02:27:54.561Z,43.23
2019-04-07T02:30:35.548Z,46.40
2019-04-07T02:33:31.062Z,45.93
2019-04-07T02:36:25.531Z,45.60
2019-04-07T02:39:05.747Z,40.50
2019-04-07T02:41:52.291Z,46.50
2019-04-07T02:44:41.909Z,42.90
2019-04-07T02:47:24.623Z,38.80
2019-04-07T02:50:14.166Z,47.03
2019-04-07T02:52:53.250Z,40.60
2019-04-07T02:55:42.306Z,43.53
2019-04-07T03:01:06.963Z,40.53
2019-04-07T03:03:41.123Z,41.03
2019-04-07T03:06:37.281Z,45.63
2019-04-07T03:09:03.530Z,44.40
2019-04-07T03:11:47.748Z,42.77
2019-04-07T03:14:34.518Z,43.43
2019-04-07T03:17:08.536Z,47.63
2019-04-07T03:19:42.668Z,45.50
2019-04-07T03:22:28.981Z,50.60
2019-04-07T03:25:09.914Z,37.10
2019-04-07T03:28:02.867Z,43.57
2019-04-07T03:30:49.182Z,39.80
2019-04-07T03:33:25.988Z,44.40
2019-04-07T03:36:02.901Z,41.87
2019-04-07T03:38:39.356Z,51.73
2019-04-07T03:41:15.046Z,44.30
2019-04-07T03:44:01.659Z,40.40
2019-04-07T03:47:07.149Z,45.07
2019-04-07T03:50:07.170Z,46.90
2019-04-07T03:52:52.295Z,39.60
2019-04-07T03:55:33.912Z,44.40
2019-04-07T03:58:19.583Z,41.63
2019-04-07T04:01:10.196Z,44.30
2019-04-07T04:03:43.964Z,45.90
2019-04-07T04:06:24.722Z,43.87
2019-04-07T04:09:06.786Z,38.90
2019-04-07T04:11:50.107Z,39.40
2019-04-07T04:14:21.963Z,43.77
2019-04-07T04:16:51.044Z,40.60
2019-04-07T04:19:18.813Z,42.73
2019-04-07T04:21:45.987Z,45.77
2019-04-07T04:24:13.059Z,41.17
2019-04-07T04:26:40.050Z,43.50
2019-04-07T04:29:08.240Z,48.37
2019-04-07T04:31:35.804Z,48.23
2019-04-07T04:34:03.348Z,50.57
2019-04-07T04:36:31.411Z,44.60
2019-04-07T04:38:59.110Z,49.70
2019-04-07T04:41:27.283Z,45.90
2019-04-07T04:43:56.609Z,46.33
2019-04-07T04:46:23.872Z,50.90
2019-04-07T04:48:51.696Z,45.13
2019-04-07T04:51:19.735Z,49.37
2019-04-07T04:53:47.586Z,47.57
2019-04-07T04:56:14.838Z,48.17
2019-04-07T04:58:42.449Z,47.57
2019-04-07T05:01:09.688Z,49.30
2019-04-07T05:03:36.682Z,46.73
2019-04-07T05:06:03.926Z,39.43
2019-04-07T05:08:31.159Z,40.50
2019-04-07T05:10:58.823Z,43.43
2019-04-07T05:13:26.001Z,41.43
2019-04-07T05:15:53.719Z,42.27
2019-04-07T05:18:21.101Z,39.20
2019-04-07T05:20:48.719Z,45.80
2019-04-07T05:23:16.226Z,40.20
2019-04-07T05:25:43.803Z,43.50
2019-04-07T05:28:11.319Z,41.67
2019-04-07T05:30:39.076Z,40.67
2019-04-07T05:33:06.257Z,42.50
2019-04-07T05:35:34.124Z,42.23
2019-04-07T05:38:04.023Z,46.90
2019-04-07T05:40:29.981Z,36.63
2019-04-07T05:42:56.973Z,41.33
2019-04-07T05:45:23.915Z,40.70
2019-04-07T05:47:52.498Z,47.27
2019-04-07T05:50:20.101Z,44.87
2019-04-07T05:52:47.651Z,41.10
2019-04-07T05:55:15.226Z,44.03
2019-04-07T05:57:42.289Z,41.47
2019-04-07T06:00:15.687Z,45.20
2019-04-07T06:02:40.822Z,43.87
2019-04-07T06:05:07.827Z,48.30
2019-04-07T06:07:35.929Z,47.27
2019-04-07T06:10:04.374Z,55.10
2019-04-07T06:12:31.640Z,42.63
2019-04-07T06:14:58.641Z,46.17
2019-04-07T06:17:26.307Z,43.60
2019-04-07T06:19:54.468Z,44.77
2019-04-07T06:22:22.001Z,47.17
2019-04-07T06:24:50.250Z,44.07
2019-04-07T06:27:18.117Z,39.97
2019-04-07T06:29:45.804Z,46.07
2019-04-07T06:32:12.799Z,40.30
2019-04-07T06:34:41.841Z,50.43
2019-04-07T06:37:08.691Z,41.23
2019-04-07T06:39:36.157Z,44.33
2019-04-07T06:42:03.516Z,37.03
2019-04-07T06:44:30.672Z,38.30
2019-04-07T06:47:18.006Z,36.80
2019-04-07T06:50:01.860Z,35.30
2019-04-07T06:52:42.182Z,40.27
2019-04-07T06:55:32.706Z,39.97
2019-04-07T06:58:08.061Z,36.13
2019-04-07T07:01:04.629Z,29.70
2019-04-07T07:03:54.588Z,37.50
2019-04-07T07:06:34.128Z,29.03
2019-04-07T07:09:27.852Z,31.33
2019-04-07T07:12:18.668Z,29.43
2019-04-07T07:15:05.889Z,29.87
2019-04-07T07:17:38.129Z,29.03
2019-04-07T07:20:38.200Z,31.47
2019-04-07T07:23:14.102Z,29.37
2019-04-07T07:25:38.943Z,26.37
2019-04-07T07:28:07.581Z,23.30
2019-04-07T07:30:34.982Z,24.60
2019-04-07T07:33:01.994Z,24.37
2019-04-07T07:35:28.966Z,28.43
2019-04-07T07:37:59.450Z,30.30
2019-04-07T07:40:25.579Z,24.60
2019-04-07T07:42:56.065Z,23.70
2019-04-07T07:45:21.770Z,24.90
2019-04-07T07:47:53.224Z,23.37
2019-04-07T07:50:17.912Z,25.77
2019-04-07T07:52:47.298Z,25.00
2019-04-07T07:55:14.262Z,24.87
2019-04-07T07:57:41.265Z,26.57
2019-04-07T08:00:10.311Z,26.70
2019-04-07T08:02:38.958Z,25.30
2019-04-07T08:05:06.127Z,28.53
2019-04-07T08:07:33.599Z,24.07
2019-04-07T08:10:01.398Z,31.83
2019-04-07T08:12:32.368Z,23.87
2019-04-07T08:14:58.604Z,24.93
2019-04-07T08:17:25.969Z,29.43
2019-04-07T08:19:52.955Z,25.00
2019-04-07T08:22:28.890Z,25.63
2019-04-07T08:24:51.131Z,26.97
2019-04-07T08:27:17.849Z,27.30
2019-04-07T08:29:45.212Z,25.20
2019-04-07T08:32:12.333Z,25.00
2019-04-07T08:34:39.284Z,23.90
2019-04-07T08:37:06.280Z,27.27
2019-04-07T08:39:35.796Z,26.10
2019-04-07T08:42:04.724Z,31.30
2019-04-07T08:44:32.327Z,32.20
2019-04-07T08:46:59.304Z,31.43
2019-04-07T08:49:26.271Z,23.37
2019-04-07T08:51:54.908Z,25.63
2019-04-07T08:54:22.002Z,22.57
2019-04-07T08:56:48.981Z,25.70
2019-04-07T08:59:17.157Z,22.73
2019-04-07T09:01:44.690Z,25.20
2019-04-07T09:04:15.078Z,20.97
2019-04-07T09:06:40.917Z,21.60
2019-04-07T09:09:08.096Z,19.07
2019-04-07T09:11:35.126Z,26.83
2019-04-07T09:14:05.938Z,16.07
2019-04-07T09:16:58.113Z,22.80
2019-04-07T09:19:53.788Z,15.87
2019-04-07T09:22:31.611Z,15.33
2019-04-07T09:25:27.329Z,17.80
2019-04-07T09:28:14.296Z,22.53
2019-04-07T09:31:02.160Z,20.30
2019-04-07T09:33:38.854Z,27.77
2019-04-07T09:36:23.385Z,21.53
2019-04-07T09:39:00.185Z,19.83
2019-04-07T09:41:32.557Z,19.60
2019-04-07T09:44:23.700Z,20.27
2019-04-07T09:47:19.628Z,20.90
2019-04-07T09:50:06.677Z,24.33
2019-04-07T09:52:52.196Z,24.90
2019-04-07T09:55:58.017Z,24.23
2019-04-07T09:58:53.479Z,27.07
2019-04-07T10:01:35.352Z,32.30
2019-04-07T10:04:20.971Z,29.67
2019-04-07T10:07:22.998Z,28.83
2019-04-07T10:10:12.509Z,29.87
2019-04-07T10:12:52.568Z,22.80
2019-04-07T10:15:42.073Z,30.27
2019-04-07T10:18:29.653Z,21.60
2019-04-07T10:21:07.023Z,23.07
2019-04-07T10:23:49.433Z,27.47
2019-04-07T10:26:23.262Z,24.03
2019-04-07T10:28:55.964Z,21.60
2019-04-07T10:34:54.345Z,22.60
2019-04-07T10:37:37.883Z,22.90
2019-04-07T10:40:23.369Z,22.03
2019-04-07T10:43:13.658Z,24.20
2019-04-07T10:45:56.010Z,26.20
2019-04-07T10:48:43.440Z,23.27
2019-04-07T10:51:35.346Z,21.97
2019-04-07T10:54:19.939Z,21.80
2019-04-07T10:57:05.410Z,23.80
2019-04-07T10:59:42.966Z,23.00
2019-04-07T11:02:29.563Z,22.20
2019-04-07T11:05:34.340Z,24.07
2019-04-07T11:08:33.090Z,19.93
2019-04-07T11:11:26.666Z,21.80
2019-04-07T11:14:20.069Z,23.77
2019-04-07T11:17:10.035Z,23.70
2019-04-07T11:20:13.224Z,27.27
2019-04-07T11:22:58.717Z,25.47
2019-04-07T11:25:34.718Z,26.17
2019-04-07T11:28:14.812Z,25.70
2019-04-07T11:30:49.694Z,20.87
2019-04-07T11:33:24.964Z,21.53
2019-04-07T11:36:18.600Z,21.40
2019-04-07T11:38:51.638Z,23.70
2019-04-07T11:41:37.235Z,23.13
2019-04-07T11:44:13.855Z,25.10
2019-04-07T11:46:49.328Z,25.30
2019-04-07T11:49:25.113Z,24.00
2019-04-07T11:52:00.212Z,21.53
2019-04-07T11:54:32.655Z,21.10
2019-04-07T11:57:25.906Z,20.10
2019-04-07T12:00:16.040Z,18.57
2019-04-07T12:03:02.877Z,21.07
2019-04-07T12:05:48.387Z,21.60
2019-04-07T12:08:36.228Z,19.67
2019-04-07T12:11:14.880Z,20.00
2019-04-07T12:14:02.242Z,20.17
2019-04-07T12:16:37.021Z,16.40
2019-04-07T12:19:11.302Z,18.73
2019-04-07T12:21:49.585Z,19.10
2019-04-07T12:24:34.816Z,26.73
2019-04-07T12:27:17.270Z,19.60
2019-04-07T12:30:04.363Z,20.97
2019-04-07T12:32:37.751Z,17.97
2019-04-07T12:35:36.599Z,22.70
2019-04-07T12:38:28.849Z,16.57
2019-04-07T12:41:24.701Z,13.27
2019-04-07T12:44:10.446Z,15.40
2019-04-07T12:46:55.797Z,17.43
2019-04-07T12:49:46.197Z,19.53
2019-04-07T12:52:39.512Z,17.50
2019-04-07T12:55:32.667Z,16.33
2019-04-07T12:58:11.752Z,14.90
2019-04-07T13:00:57.847Z,14.60
2019-04-07T13:03:37.463Z,20.27
2019-04-07T13:06:33.321Z,18.93
2019-04-07T13:09:19.410Z,16.33
2019-04-07T13:12:06.188Z,16.70
2019-04-07T13:14:44.001Z,15.13
2019-04-07T13:17:28.071Z,13.90
2019-04-07T13:20:12.998Z,16.13
2019-04-07T13:22:48.931Z,14.70
2019-04-07T13:25:45.323Z,15.03
2019-04-07T13:28:28.383Z,18.60
2019-04-07T13:31:02.976Z,19.43
2019-04-07T13:33:45.795Z,18.47
2019-04-07T13:36:29.155Z,19.93
2019-04-07T13:39:02.015Z,17.67
2019-04-07T13:41:56.401Z,17.17
2019-04-07T13:44:44.781Z,16.47
2019-04-07T13:47:27.630Z,15.83
2019-04-07T13:50:30.004Z,23.43
2019-04-07T13:53:06.699Z,17.33
2019-04-07T13:55:55.241Z,14.63
2019-04-07T13:58:35.748Z,14.87
2019-04-07T14:01:13.832Z,13.47
2019-04-07T14:03:58.944Z,16.00
2019-04-07T14:06:46.782Z,23.63
2019-04-07T14:09:42.563Z,19.53
2019-04-07T14:12:47.887Z,17.87
2019-04-07T14:15:24.754Z,16.77
2019-04-07T14:18:23.365Z,17.03
2019-04-07T14:21:10.443Z,19.03
2019-04-07T14:23:57.281Z,16.07
2019-04-07T14:26:47.771Z,21.60
2019-04-07T14:29:34.867Z,21.40
2019-04-07T14:32:20.905Z,20.13
2019-04-07T14:35:10.494Z,22.03
2019-04-07T14:37:47.282Z,22.83
2019-04-07T14:40:40.931Z,19.10
2019-04-07T14:43:25.808Z,19.40
2019-04-07T14:46:10.495Z,24.73
2019-04-07T14:48:57.082Z,23.20
2019-04-07T14:51:43.667Z,20.47
2019-04-07T14:54:39.701Z,23.00
2019-04-07T14:57:17.018Z,20.77
2019-04-07T14:59:55.162Z,23.37
2019-04-07T15:02:22.957Z,22.10
2019-04-07T15:04:57.043Z,23.43
2019-04-07T15:07:41.908Z,23.73
2019-04-07T15:10:15.386Z,20.57
2019-04-07T15:12:44.585Z,23.43
2019-04-07T15:15:11.931Z,24.50
2019-04-07T15:17:39.365Z,29.50
2019-04-07T15:20:07.425Z,23.50
2019-04-07T15:22:34.665Z,23.37
2019-04-07T15:25:01.744Z,22.20
2019-04-07T15:27:28.731Z,23.60
2019-04-07T15:29:56.631Z,34.23
2019-04-07T15:32:26.636Z,25.40
2019-04-07T15:35:15.001Z,24.63
2019-04-07T15:37:42.592Z,20.47
2019-04-07T15:40:10.906Z,21.77
2019-04-07T15:42:43.349Z,22.60
2019-04-07T15:45:10.556Z,23.97
2019-04-07T15:47:36.328Z,23.40
2019-04-07T15:50:03.883Z,27.23
2019-04-07T15:52:31.977Z,21.97
2019-04-07T15:54:59.564Z,23.93
2019-04-07T15:57:26.731Z,21.90
2019-04-07T15:59:54.133Z,24.10
2019-04-07T16:02:21.239Z,25.40
2019-04-07T16:04:49.229Z,20.33
2019-04-07T16:07:18.356Z,21.73
2019-04-07T16:09:52.561Z,21.37
2019-04-07T16:12:14.502Z,24.60
2019-04-07T16:14:44.930Z,25.60
2019-04-07T16:17:11.235Z,26.10
2019-04-07T16:19:43.783Z,24.03
2019-04-07T16:22:11.202Z,26.40
2019-04-07T16:24:37.278Z,24.80
2019-04-07T16:27:06.705Z,20.57
2019-04-07T16:29:33.768Z,21.97
2019-04-07T16:32:01.921Z,19.60
2019-04-07T16:34:29.146Z,25.10
2019-04-07T16:36:58.219Z,24.47
2019-04-07T16:39:25.049Z,22.60
2019-04-07T16:41:52.055Z,22.93
2019-04-07T16:44:19.088Z,25.70
2019-04-07T16:46:46.296Z,25.90
2019-04-07T16:49:14.015Z,30.70
2019-04-07T16:51:42.753Z,22.67
2019-04-07T16:54:10.412Z,25.20
2019-04-07T16:56:39.167Z,22.87
2019-04-07T16:59:09.676Z,25.70
2019-04-07T17:01:36.712Z,23.63
2019-04-07T17:04:03.847Z,23.70
2019-04-07T17:06:34.706Z,23.77
2019-04-07T17:09:00.456Z,23.20
2019-04-07T17:11:27.473Z,23.57
2019-04-07T17:13:54.506Z,23.93
2019-04-07T17:16:23.905Z,20.83
2019-04-07T17:18:53.485Z,23.30
2019-04-07T17:21:20.485Z,24.83
2019-04-07T17:23:47.721Z,25.40
2019-04-07T17:26:14.900Z,23.23
2019-04-07T17:28:44.649Z,23.20
2019-04-07T17:31:11.768Z,24.20
2019-04-07T17:33:39.377Z,26.97
2019-04-07T17:36:06.649Z,26.83
2019-04-07T17:38:39.272Z,23.33
2019-04-07T17:41:08.873Z,23.43
2019-04-07T17:43:58.992Z,22.00
2019-04-07T17:46:58.482Z,23.63
2019-04-07T17:49:50.395Z,21.50
2019-04-07T17:52:27.034Z,24.80
2019-04-07T17:55:19.470Z,23.60
2019-04-07T17:57:57.591Z,18.77
2019-04-07T18:00:41.389Z,21.53
2019-04-07T18:03:31.382Z,30.87
2019-04-07T18:06:31.030Z,18.70
2019-04-07T18:09:19.694Z,25.53
2019-04-07T18:12:09.622Z,31.97
2019-04-07T18:14:56.952Z,34.33
2019-04-07T18:17:31.309Z,22.70
2019-04-07T18:20:18.074Z,28.50
2019-04-07T18:23:05.429Z,20.80
2019-04-07T18:25:45.811Z,28.53
2019-04-07T18:28:23.835Z,34.17
2019-04-07T18:31:15.334Z,19.93
2019-04-07T18:34:10.930Z,23.80
2019-04-07T18:37:09.731Z,22.23
2019-04-07T18:40:04.691Z,23.67
2019-04-07T18:42:45.631Z,23.70
2019-04-07T18:45:31.929Z,26.53
2019-04-07T18:48:26.516Z,27.80
2019-04-07T18:51:27.781Z,25.37
2019-04-07T18:54:10.783Z,30.77
2019-04-07T18:56:54.825Z,30.00
2019-04-07T19:00:04.365Z,25.30
2019-04-07T19:02:53.872Z,26.87
2019-04-07T19:05:40.657Z,27.83
2019-04-07T19:08:20.266Z,25.77
2019-04-07T19:11:26.320Z,25.37
2019-04-07T19:14:33.442Z,30.30
2019-04-07T19:17:07.078Z,26.00
2019-04-07T19:19:52.596Z,27.87
2019-04-07T19:22:38.685Z,26.40
2019-04-07T19:25:21.465Z,25.20
2019-04-07T19:28:07.885Z,25.87
2019-04-07T19:30:46.134Z,25.60
2019-04-07T19:33:29.497Z,23.70
2019-04-07T19:36:17.508Z,28.53
2019-04-07T19:38:52.368Z,27.67
2019-04-07T19:41:38.264Z,26.43
2019-04-07T19:44:17.986Z,24.83
2019-04-07T19:46:53.379Z,34.00
2019-04-07T19:49:43.152Z,27.70
2019-04-07T19:52:39.793Z,28.93
2019-04-07T19:55:16.324Z,31.00
2019-04-07T19:58:17.800Z,24.50
2019-04-07T20:01:01.598Z,27.07
2019-04-07T20:03:47.320Z,30.67
2019-04-07T20:06:44.735Z,29.20
2019-04-07T20:09:45.389Z,27.50
2019-04-07T20:12:21.398Z,27.90
2019-04-07T20:15:12.064Z,30.80
2019-04-07T20:17:56.598Z,28.07
2019-04-07T20:20:35.814Z,25.13
2019-04-07T20:23:23.040Z,25.33
2019-04-07T20:26:03.613Z,25.30
2019-04-07T20:28:45.162Z,30.60
2019-04-07T20:31:22.777Z,28.87
2019-04-07T20:34:08.146Z,28.10
2019-04-07T20:37:00.286Z,35.33
2019-04-07T20:39:53.222Z,28.00
2019-04-07T20:42:31.125Z,29.97
2019-04-07T20:45:22.552Z,27.47
2019-04-07T20:48:07.869Z,31.40
2019-04-07T20:50:54.084Z,27.43
2019-04-07T20:53:43.756Z,32.90
2019-04-07T20:56:31.435Z,34.37
2019-04-07T20:59:45.786Z,31.13
2019-04-07T21:02:23.397Z,30.30
2019-04-07T21:05:16.698Z,30.17
2019-04-07T21:07:59.522Z,32.87
2019-04-07T21:11:06.390Z,38.23
2019-04-07T21:14:11.389Z,35.67
2019-04-07T21:16:47.559Z,36.10
2019-04-07T21:19:36.535Z,34.90
2019-04-07T21:22:15.684Z,34.90
2019-04-07T21:24:55.713Z,35.10
2019-04-07T21:27:36.111Z,36.40
2019-04-07T21:30:09.638Z,34.10
2019-04-07T21:32:59.044Z,32.10
2019-04-07T21:35:48.498Z,35.27
2019-04-07T21:38:29.686Z,31.93
2019-04-07T21:41:14.399Z,34.20
2019-04-07T21:43:58.258Z,32.60
2019-04-07T21:46:43.408Z,36.20
2019-04-07T21:49:32.664Z,36.30
2019-04-07T21:52:26.497Z,33.30
2019-04-07T21:55:09.844Z,36.13
2019-04-07T21:57:50.914Z,38.73
2019-04-07T22:00:33.261Z,31.63
2019-04-07T22:03:23.941Z,35.30
2019-04-07T22:06:10.992Z,34.60
2019-04-07T22:08:45.333Z,33.27
2019-04-07T22:11:11.327Z,38.93
2019-04-07T22:13:38.677Z,37.83
2019-04-07T22:16:05.930Z,34.73
2019-04-07T22:18:32.948Z,33.10
2019-04-07T22:20:59.902Z,36.40
2019-04-07T22:23:29.612Z,42.17
2019-04-07T22:25:55.959Z,36.60
2019-04-07T22:28:27.673Z,36.67
2019-04-07T22:30:53.219Z,40.47
2019-04-07T22:33:24.233Z,37.40
2019-04-07T22:35:49.152Z,39.67
2019-04-07T22:38:17.581Z,35.27
2019-04-07T22:40:45.781Z,37.83
2019-04-07T22:43:16.690Z,39.60
2019-04-07T22:45:52.703Z,35.37
2019-04-07T22:48:10.672Z,42.33
2019-04-07T22:50:38.823Z,43.57
2019-04-07T22:53:07.308Z,46.40
2019-04-07T22:55:36.050Z,39.10
2019-04-07T22:58:03.320Z,37.40
2019-04-07T23:00:30.781Z,41.00
2019-04-07T23:02:57.987Z,41.00
2019-04-07T23:05:25.625Z,38.10
2019-04-07T23:07:53.167Z,40.07
2019-04-07T23:10:20.180Z,41.50
2019-04-07T23:12:47.923Z,38.00
2019-04-07T23:15:14.910Z,42.70
2019-04-07T23:17:41.900Z,42.10
2019-04-07T23:20:09.030Z,41.33
2019-04-07T23:22:36.211Z,38.87
2019-04-07T23:25:03.658Z,41.93
2019-04-07T23:27:30.616Z,45.53
2019-04-07T23:29:57.573Z,47.27
2019-04-07T23:32:25.460Z,44.20
2019-04-07T23:34:52.476Z,42.93
2019-04-07T23:37:19.447Z,45.23
2019-04-07T23:39:46.391Z,40.47
2019-04-07T23:42:13.351Z,40.03
2019-04-07T23:51:39.329Z,43.53
2019-04-07T23:54:14.996Z,41.10
2019-04-07T23:56:43.625Z,41.23
2019-04-07T23:59:11.066Z,42.77
